Time;durP1;ratioP1;P1;durP2;ratioP2;P2;SDS_P1;SDS_P2;PMS_P1;PMS_P2;Temp;Humidity;BMP_temperature;BMP_pressure;BME280_temperature;BME280_humidity;BME280_pressure;Samples;Min_cycle;Max_cycle;Signal;HPM_P1;HPM_P2
2022/07/12 00:01:30;;;;;;;5.28;1.38;;;;;;;;;;5070052;28;20056;-74
2022/07/12 00:04:00;;;;;;;5.00;1.08;;;;;;;;;;5089274;28;20056;-74
2022/07/12 00:06:30;;;;;;;8.88;3.83;;;;;;;;;;5090560;28;20048;-74
2022/07/12 00:09:00;;;;;;;6.05;1.60;;;;;;;;;;5090262;28;20064;-74
2022/07/12 00:11:30;;;;;;;7.30;1.80;;;;;;;;;;5090429;28;20044;-72
2022/07/12 00:14:00;;;;;;;7.20;1.33;;;;;;;;;;5090199;28;20059;-74
2022/07/12 00:16:30;;;;;;;5.57;1.55;;;;;;;;;;5090329;28;20143;-74
2022/07/12 00:19:00;;;;;;;4.20;1.60;;;;;;;;;;5089308;28;20052;-74
2022/07/12 00:21:31;;;;;;;3.75;1.55;;;;;;;;;;5090566;28;20054;-74
2022/07/12 00:24:01;;;;;;;4.78;1.48;;;;;;;;;;5090332;28;20052;-74
2022/07/12 00:26:31;;;;;;;4.03;1.45;;;;;;;;;;5089576;28;20407;-71
2022/07/12 00:29:01;;;;;;;8.00;1.20;;;;;;;;;;5089971;28;20044;-75
2022/07/12 00:31:31;;;;;;;11.77;1.45;;;;;;;;;;5090470;28;20048;-72
2022/07/12 00:34:00;;;;;;;13.43;1.70;;;;;;;;;;5089974;28;20121;-73
2022/07/12 00:36:30;;;;;;;3.35;1.23;;;;;;;;;;5089596;28;20035;-72
2022/07/12 00:39:00;;;;;;;4.35;1.10;;;;;;;;;;5089905;28;20047;-73
2022/07/12 00:41:30;;;;;;;7.03;1.30;;;;;;;;;;5089801;28;20044;-73
2022/07/12 00:44:00;;;;;;;5.63;1.27;;;;;;;;;;5090006;28;20494;-72
2022/07/12 00:46:31;;;;;;;9.23;1.60;;;;;;;;;;5089554;28;20842;-72
2022/07/12 00:49:01;;;;;;;6.55;1.30;;;;;;;;;;5090261;28;20044;-73
2022/07/12 00:51:32;;;;;;;3.05;1.35;;;;;;;;;;5090054;28;20146;-73
2022/07/12 00:54:04;;;;;;;6.45;1.80;;;;;;;;;;5089800;28;20074;-73
2022/07/12 00:56:34;;;;;;;4.43;1.42;;;;;;;;;;5089383;28;20056;-73
2022/07/12 00:59:04;;;;;;;8.10;1.30;;;;;;;;;;5088576;28;20052;-73
2022/07/12 01:01:34;;;;;;;6.05;1.02;;;;;;;;;;5089989;28;20066;-74
2022/07/12 01:04:05;;;;;;;3.28;1.35;;;;;;;;;;5088602;28;20048;-73
2022/07/12 01:06:36;;;;;;;1.92;0.60;;;;;;;;;;5090219;28;20056;-74
2022/07/12 01:09:07;;;;;;;2.30;0.63;;;;;;;;;;5067540;28;20057;-74
2022/07/12 01:11:37;;;;;;;1.45;0.45;;;;;;;;;;5066737;28;20053;-74
2022/07/12 01:14:08;;;;;;;2.00;0.60;;;;;;;;;;5067193;28;20056;-74
2022/07/12 01:16:39;;;;;;;2.58;0.50;;;;;;;;;;5069188;28;20388;-73
2022/07/12 01:19:17;;;;;;;1.98;0.50;;;;;;;;;;5069641;28;20056;-74
2022/07/12 01:21:51;;;;;;;0.40;0.40;;;;;;;;;;5068976;28;20553;-73
2022/07/12 01:24:21;;;;;;;2.80;0.60;;;;;;;;;;5068483;28;20056;-72
2022/07/12 01:26:51;;;;;;;2.88;0.50;;;;;;;;;;5068750;28;20048;-74
2022/07/12 01:29:21;;;;;;;0.32;0.28;;;;;;;;;;5068845;28;20055;-73
2022/07/12 01:31:51;;;;;;;1.10;0.38;;;;;;;;;;5068572;28;20051;-74
2022/07/12 01:34:21;;;;;;;2.35;0.40;;;;;;;;;;5068486;28;20055;-72
2022/07/12 01:36:51;;;;;;;3.25;0.30;;;;;;;;;;5067823;28;20558;-72
2022/07/12 01:39:21;;;;;;;2.20;0.50;;;;;;;;;;5069315;28;20049;-74
2022/07/12 01:41:51;;;;;;;3.20;0.57;;;;;;;;;;5069116;28;20415;-74
2022/07/12 01:44:22;;;;;;;1.33;0.40;;;;;;;;;;5068506;28;20060;-73
2022/07/12 01:46:51;;;;;;;;;;;;;;;;;;5069126;28;20060;-74
2022/07/12 01:49:21;;;;;;;1.85;0.38;;;;;;;;;;5068492;28;19931;-75
2022/07/12 01:51:51;;;;;;;2.70;0.30;;;;;;;;;;5068653;28;20048;-73
2022/07/12 01:54:21;;;;;;;3.10;0.32;;;;;;;;;;5068393;28;20411;-77
2022/07/12 01:56:52;;;;;;;8.50;0.57;;;;;;;;;;5067935;28;20415;-75
2022/07/12 01:59:23;;;;;;;3.13;0.60;;;;;;;;;;5099645;28;20053;-76
2022/07/12 02:01:54;;;;;;;5.40;0.52;;;;;;;;;;5067199;28;20059;-78
2022/07/12 02:04:24;;;;;;;10.82;0.60;;;;;;;;;;5068289;28;20041;-75
2022/07/12 02:06:55;;;;;;;2.70;0.52;;;;;;;;;;5099863;28;20053;-75
2022/07/12 02:09:26;;;;;;;1.63;0.32;;;;;;;;;;5081826;28;20066;-74
2022/07/12 02:11:57;;;;;;;1.05;0.30;;;;;;;;;;5088509;28;20048;-75
2022/07/12 02:14:27;;;;;;;0.47;0.17;;;;;;;;;;5088446;28;20504;-75
2022/07/12 02:16:57;;;;;;;4.22;0.30;;;;;;;;;;5088731;28;20040;-74
2022/07/12 02:19:26;;;;;;;;;;;;;;;;;;5089078;28;20059;-75
2022/07/12 02:21:56;;;;;;;1.00;0.30;;;;;;;;;;5088091;28;19931;-74
2022/07/12 02:24:26;;;;;;;;;;;;;;;;;;5069584;28;20047;-74
2022/07/12 02:26:56;;;;;;;1.58;0.22;;;;;;;;;;5088184;28;19931;-73
2022/07/12 02:29:26;;;;;;;0.88;0.30;;;;;;;;;;5088115;28;20048;-73
2022/07/12 02:31:56;;;;;;;1.60;0.35;;;;;;;;;;5088234;28;20051;-73
2022/07/12 02:34:25;;;;;;;;;;;;;;;;;;5069874;28;20060;-74
2022/07/12 02:36:55;;;;;;;1.52;0.20;;;;;;;;;;5087458;28;19927;-73
2022/07/12 02:39:24;;;;;;;;;;;;;;;;;;5088441;28;20048;-73
2022/07/12 02:41:54;;;;;;;0.88;0.30;;;;;;;;;;5087548;28;20397;-73
2022/07/12 02:44:23;;;;;;;;;;;;;;;;;;5088584;28;20616;-73
2022/07/12 02:46:53;;;;;;;2.55;0.30;;;;;;;;;;5087839;28;19926;-73
2022/07/12 02:49:23;;;;;;;0.75;0.30;;;;;;;;;;5069406;28;20422;-72
2022/07/12 02:51:52;;;;;;;;;;;;;;;;;;5088342;28;20055;-73
2022/07/12 02:54:22;;;;;;;7.28;0.52;;;;;;;;;;5086581;28;19923;-73
2022/07/12 02:56:52;;;;;;;6.53;0.32;;;;;;;;;;5087749;28;20044;-73
2022/07/12 02:59:24;;;;;;;1.08;0.30;;;;;;;;;;5087603;28;20052;-73
2022/07/12 03:01:54;;;;;;;1.45;0.25;;;;;;;;;;5087821;28;20040;-74
2022/07/12 03:04:24;;;;;;;1.70;0.30;;;;;;;;;;5087216;28;20045;-74
2022/07/12 03:06:53;;;;;;;;;;;;;;;;;;5087829;28;20047;-75
2022/07/12 03:09:23;;;;;;;3.72;0.32;;;;;;;;;;5087245;28;19927;-75
2022/07/12 03:11:52;;;;;;;;;;;;;;;;;;5087853;28;20074;-75
2022/07/12 03:14:22;;;;;;;5.20;0.32;;;;;;;;;;5087096;28;19924;-75
2022/07/12 03:16:51;;;;;;;;;;;;;;;;;;5087889;28;20048;-74
2022/07/12 03:19:21;;;;;;;3.03;0.60;;;;;;;;;;5087165;28;19935;-74
2022/07/12 03:21:50;;;;;;;;;;;;;;;;;;5087737;28;20063;-74
2022/07/12 03:24:19;;;;;;;3.67;0.60;;;;;;;;;;5087196;28;20307;-74
2022/07/12 03:26:49;;;;;;;;;;;;;;;;;;5087669;28;20051;-73
2022/07/12 03:29:19;;;;;;;1.35;0.57;;;;;;;;;;5086842;28;19925;-73
2022/07/12 03:31:48;;;;;;;;;;;;;;;;;;5087754;28;21083;-73
2022/07/12 03:34:18;;;;;;;0.93;0.60;;;;;;;;;;5086706;28;19920;-73
2022/07/12 03:36:47;;;;;;;;;;;;;;;;;;5068867;28;20071;-73
2022/07/12 03:39:17;;;;;;;0.63;0.40;;;;;;;;;;5087030;28;19935;-73
2022/07/12 03:41:47;;;;;;;3.53;0.60;;;;;;;;;;5087230;28;20411;-74
2022/07/12 03:44:17;;;;;;;2.08;0.95;;;;;;;;;;5086642;28;20052;-73
2022/07/12 03:46:48;;;;;;;4.25;0.50;;;;;;;;;;5087117;28;20475;-73
2022/07/12 03:49:18;;;;;;;0.40;0.40;;;;;;;;;;5086606;28;20048;-72
2022/07/12 03:51:47;;;;;;;;;;;;;;;;;;5087117;28;20525;-73
2022/07/12 03:54:17;;;;;;;0.73;0.40;;;;;;;;;;5086802;28;19928;-72
2022/07/12 03:59:35;;;;;;;1.92;0.40;;;;;;;;;;5086507;28;19923;-73
2022/07/12 04:02:10;;;;;;;0.30;0.22;;;;;;;;;;5086855;28;20118;-73
2022/07/12 04:04:41;;;;;;;0.35;0.35;;;;;;;;;;5085694;28;20056;-72
2022/07/12 04:07:12;;;;;;;0.98;0.40;;;;;;;;;;5086697;28;20055;-71
2022/07/12 04:09:42;;;;;;;0.85;0.30;;;;;;;;;;5086836;28;20060;-72
2022/07/12 04:12:11;;;;;;;0.35;0.25;;;;;;;;;;5068833;28;20052;-73
2022/07/12 04:14:41;;;;;;;0.30;0.30;;;;;;;;;;5086356;28;20048;-72
2022/07/12 04:17:11;;;;;;;;;;;;;;;;;;5085985;28;20526;-72
2022/07/12 04:19:40;;;;;;;0.43;0.30;;;;;;;;;;5086392;28;19920;-72
2022/07/12 04:22:10;;;;;;;0.30;0.20;;;;;;;;;;5086475;28;20063;-73
2022/07/12 04:24:40;;;;;;;0.93;0.10;;;;;;;;;;5087017;28;20043;-73
2022/07/12 04:27:10;;;;;;;0.13;0.13;;;;;;;;;;5086709;28;20052;-73
2022/07/12 04:29:40;;;;;;;1.05;0.50;;;;;;;;;;5068439;28;20052;-73
2022/07/12 04:32:10;;;;;;;1.75;0.40;;;;;;;;;;5086288;28;20433;-73
2022/07/12 04:34:40;;;;;;;0.63;0.43;;;;;;;;;;5086702;28;20509;-73
2022/07/12 04:37:10;;;;;;;1.08;0.70;;;;;;;;;;5068277;28;20050;-73
2022/07/12 04:39:40;;;;;;;;;;;;;;;;;;5086777;28;20063;-72
2022/07/12 04:42:11;;;;;;;1.63;0.50;;;;;;;;;;5086484;28;19951;-73
2022/07/12 04:44:40;;;;;;;;;;;;;;;;;;5102023;28;20048;-73
2022/07/12 04:47:10;;;;;;;0.52;0.52;;;;;;;;;;5087805;28;19919;-73
2022/07/12 04:49:40;;;;;;;0.77;0.40;;;;;;;;;;5089989;28;20055;-73
2022/07/12 04:52:10;;;;;;;0.55;0.52;;;;;;;;;;5090530;28;20410;-72
2022/07/12 04:54:39;;;;;;;;;;;;;;;;;;5090305;28;20514;-72
2022/07/12 04:57:09;;;;;;;0.47;0.35;;;;;;;;;;5090142;28;19951;-73
2022/07/12 04:59:40;;;;;;;0.50;0.40;;;;;;;;;;5071817;28;20604;-73
2022/07/12 05:02:09;;;;;;;;;;;;;;;;;;5090454;28;20051;-72
2022/07/12 05:04:39;;;;;;;1.63;0.45;;;;;;;;;;5089862;28;19924;-73
2022/07/12 05:07:08;;;;;;;;;;;;;;;;;;5090606;28;20059;-72
2022/07/12 05:09:38;;;;;;;2.72;0.88;;;;;;;;;;5089549;28;19920;-72
2022/07/12 05:12:08;;;;;;;0.32;0.30;;;;;;;;;;5089426;28;20062;-72
2022/07/12 05:14:37;;;;;;;1.20;0.40;;;;;;;;;;5089851;28;20063;-72
2022/07/12 05:17:07;;;;;;;;;;;;;;;;;;5090505;28;20047;-72
2022/07/12 05:19:39;;;;;;;0.50;0.50;;;;;;;;;;5089512;28;19924;-73
2022/07/12 05:22:10;;;;;;;4.18;0.88;;;;;;;;;;5093849;28;20122;-72
2022/07/12 05:24:39;;;;;;;1.65;0.60;;;;;;;;;;5093801;28;20051;-73
2022/07/12 05:27:09;;;;;;;0.95;0.50;;;;;;;;;;5093650;28;20085;-72
2022/07/12 05:29:39;;;;;;;2.42;0.60;;;;;;;;;;5089264;28;20052;-72
2022/07/12 05:32:09;;;;;;;1.67;0.52;;;;;;;;;;5089019;28;20039;-72
2022/07/12 05:34:39;;;;;;;1.63;0.73;;;;;;;;;;5089182;28;20048;-72
2022/07/12 05:37:09;;;;;;;2.33;1.10;;;;;;;;;;5088920;28;20048;-72
2022/07/12 05:39:39;;;;;;;2.58;0.75;;;;;;;;;;5088970;28;20055;-72
2022/07/12 05:42:12;;;;;;;2.83;0.80;;;;;;;;;;5089421;28;20075;-72
2022/07/12 05:44:42;;;;;;;;;;;;;;;;;;5089586;28;20048;-72
2022/07/12 05:47:12;;;;;;;4.10;0.93;;;;;;;;;;5071058;28;19923;-72
2022/07/12 05:49:42;;;;;;;2.35;1.15;;;;;;;;;;5088701;28;20051;-72
2022/07/12 05:54:59;;;;;;;3.50;1.10;;;;;;;;;;5088727;28;20310;-72
2022/07/12 05:57:29;;;;;;;;;;;;;;;;;;5088847;28;20055;-72
2022/07/12 05:59:58;;;;;;;2.25;1.23;;;;;;;;;;5087895;28;19930;-72
2022/07/12 06:02:31;;;;;;;2.88;1.48;;;;;;;;;;5073423;28;20071;-72
2022/07/12 06:05:01;;;;;;;2.05;1.33;;;;;;;;;;5088295;28;20044;-72
2022/07/12 06:07:32;;;;;;;3.28;1.40;;;;;;;;;;5088468;28;20075;-72
2022/07/12 06:10:03;;;;;;;2.72;1.35;;;;;;;;;;5088792;28;20426;-72
2022/07/12 06:12:33;;;;;;;3.45;1.20;;;;;;;;;;5088190;28;20043;-72
2022/07/12 06:15:03;;;;;;;;;;;;;;;;;;5088766;28;20075;-72
2022/07/12 06:17:34;;;;;;;3.10;1.23;;;;;;;;;;5088429;28;19928;-72
2022/07/12 06:20:04;;;;;;;2.95;1.65;;;;;;;;;;5088219;28;20055;-72
2022/07/12 06:22:34;;;;;;;3.45;1.73;;;;;;;;;;5088031;28;20507;-72
2022/07/12 06:25:04;;;;;;;2.13;1.42;;;;;;;;;;5088139;28;20058;-72
2022/07/12 06:27:54;;;;;;;3.55;1.95;;;;;;;;;;5073376;28;20040;-72
2022/07/12 06:30:24;;;;;;;;;;;;;;;;;;5088366;28;20525;-73
2022/07/12 06:32:53;;;;;;;2.25;1.45;;;;;;;;;;5088049;28;20302;-72
2022/07/12 06:35:24;;;;;;;4.13;1.52;;;;;;;;;;5088190;28;20048;-72
2022/07/12 06:37:53;;;;;;;2.13;1.23;;;;;;;;;;5087772;28;20040;-72
2022/07/12 06:40:23;;;;;;;;;;;;;;;;;;5088198;28;20062;-72
2022/07/12 06:42:52;;;;;;;2.42;1.17;;;;;;;;;;5069917;28;20383;-72
2022/07/12 06:45:23;;;;;;;1.23;0.85;;;;;;;;;;5087807;28;20521;-73
2022/07/12 06:47:53;;;;;;;1.23;1.05;;;;;;;;;;5087501;28;20502;-73
2022/07/12 06:50:23;;;;;;;2.25;0.98;;;;;;;;;;5087981;28;20052;-72
2022/07/12 06:52:53;;;;;;;1.80;0.95;;;;;;;;;;5087779;28;20388;-73
2022/07/12 06:55:24;;;;;;;0.98;0.85;;;;;;;;;;5087286;28;20041;-73
2022/07/12 07:14:52;;;;;;;2.65;1.70;;;;;;;;;;5084637;27;20940;-72
2022/07/12 07:17:24;;;;;;;1.80;1.20;;;;;;;;;;5082935;28;20059;-72
2022/07/12 07:19:53;;;;;;;1.42;1.30;;;;;;;;;;5085122;28;20510;-72
2022/07/12 07:22:23;;;;;;;1.60;1.20;;;;;;;;;;5085397;28;20044;-71
2022/07/12 07:24:53;;;;;;;;;;;;;;;;;;5085723;28;20049;-72
2022/07/12 07:27:22;;;;;;;1.48;0.93;;;;;;;;;;5085692;28;19931;-73
2022/07/12 07:44:46;;;;;;;1.20;0.75;;;;;;;;;;5124625;27;20426;-72
2022/07/12 07:47:45;;;;;;;1.52;0.35;;;;;;;;;;5124902;28;20440;-75
2022/07/12 07:50:35;;;;;;;0.25;0.25;;;;;;;;;;5124675;28;20035;-72
2022/07/12 07:53:05;;;;;;;1.33;0.55;;;;;;;;;;5122833;28;20055;-71
2022/07/12 07:55:34;;;;;;;;;;;;;;;;;;5125394;28;20051;-72
2022/07/12 07:58:03;;;;;;;0.50;0.50;;;;;;;;;;5122290;28;19923;-72
2022/07/12 08:00:33;;;;;;;;;;;;;;;;;;5124537;28;20040;-72
2022/07/12 08:03:03;;;;;;;2.35;0.82;;;;;;;;;;5124485;28;19924;-72
2022/07/12 08:05:33;;;;;;;3.00;1.30;;;;;;;;;;5123344;28;20528;-73
2022/07/12 08:08:02;;;;;;;2.25;1.40;;;;;;;;;;5123987;28;20094;-72
2022/07/12 08:10:33;;;;;;;3.60;1.50;;;;;;;;;;5124007;28;20050;-72
2022/07/12 08:13:04;;;;;;;1.83;0.95;;;;;;;;;;5124277;28;20467;-74
2022/07/12 08:15:34;;;;;;;3.03;1.35;;;;;;;;;;5124152;28;20047;-72
2022/07/12 08:18:04;;;;;;;1.73;1.17;;;;;;;;;;5123732;28;20047;-72
2022/07/12 08:20:35;;;;;;;2.28;1.25;;;;;;;;;;5124145;28;20062;-72
2022/07/12 08:23:15;;;;;;;3.42;0.63;;;;;;;;;;5124093;28;20619;-72
2022/07/12 08:25:45;;;;;;;2.20;1.05;;;;;;;;;;5124028;28;20043;-72
2022/07/12 08:28:14;;;;;;;;;;;;;;;;;;5124524;28;20042;-77
2022/07/12 08:30:45;;;;;;;1.30;0.65;;;;;;;;;;5121665;28;19919;-73
2022/07/12 08:33:15;;;;;;;1.13;0.85;;;;;;;;;;5123225;28;20490;-71
2022/07/12 08:35:44;;;;;;;0.93;0.77;;;;;;;;;;5124570;28;20047;-71
2022/07/12 08:38:15;;;;;;;0.80;0.80;;;;;;;;;;5123808;28;20047;-72
2022/07/12 08:40:45;;;;;;;1.65;0.73;;;;;;;;;;5122089;28;20051;-72
2022/07/12 08:43:15;;;;;;;2.03;0.80;;;;;;;;;;5130553;27;20051;-73
2022/07/12 08:45:44;;;;;;;;;;;;;;;;;;5130892;27;20058;-71
2022/07/12 08:48:14;;;;;;;3.97;0.85;;;;;;;;;;5130406;27;19931;-72
2022/07/12 08:51:02;;;;;;;0.98;0.70;;;;;;;;;;5129177;27;20066;-72
2022/07/12 08:53:34;;;;;;;0.30;0.30;;;;;;;;;;5129300;27;20409;-72
2022/07/12 08:56:05;;;;;;;0.55;0.55;;;;;;;;;;5130014;27;20043;-72
2022/07/12 08:58:36;;;;;;;1.85;0.77;;;;;;;;;;5130106;27;20054;-72
2022/07/12 09:01:06;;;;;;;1.17;0.77;;;;;;;;;;5129860;27;20825;-71
2022/07/12 09:03:35;;;;;;;;;;;;;;;;;;5130862;27;20058;-72
2022/07/12 09:06:06;;;;;;;0.50;0.50;;;;;;;;;;5130462;27;19930;-71
2022/07/12 09:08:39;;;;;;;3.45;0.80;;;;;;;;;;5130689;27;20043;-72
2022/07/12 09:11:09;;;;;;;1.45;0.45;;;;;;;;;;5130239;27;20051;-72
2022/07/12 09:13:50;;;;;;;1.00;0.70;;;;;;;;;;5129573;27;20140;-75
2022/07/12 09:16:23;;;;;;;3.80;0.65;;;;;;;;;;5128029;27;20051;-72
2022/07/12 09:19:19;;;;;;;1.45;0.57;;;;;;;;;;5129717;27;20047;-71
2022/07/12 09:21:52;;;;;;;1.38;0.60;;;;;;;;;;5129104;27;20043;-72
2022/07/12 09:24:27;;;;;;;2.20;0.73;;;;;;;;;;5129700;27;20059;-72
2022/07/12 09:27:05;;;;;;;2.33;0.70;;;;;;;;;;5129536;27;20493;-72
2022/07/12 09:29:47;;;;;;;1.45;0.68;;;;;;;;;;5129670;27;20523;-72
2022/07/12 09:38:09;;;;;;;1.85;0.80;;;;;;;;;;5129226;27;20046;-72
2022/07/12 09:40:40;;;;;;;2.05;0.40;;;;;;;;;;5127584;27;20047;-73
2022/07/12 09:43:10;;;;;;;0.40;0.40;;;;;;;;;;5128935;27;20051;-73
2022/07/12 09:45:41;;;;;;;0.32;0.32;;;;;;;;;;5129505;27;20057;-73
2022/07/12 09:48:11;;;;;;;0.30;0.30;;;;;;;;;;5129929;27;20051;-75
2022/07/12 09:50:46;;;;;;;1.20;0.20;;;;;;;;;;5128848;27;20043;-72
2022/07/12 09:53:29;;;;;;;0.47;0.20;;;;;;;;;;5129483;27;20050;-73
2022/07/12 09:56:03;;;;;;;;;;;;;;;;;;5128945;27;20051;-72
2022/07/12 09:58:40;;;;;;;2.67;0.35;;;;;;;;;;5129222;27;19923;-73
2022/07/12 10:01:11;;;;;;;0.20;0.20;;;;;;;;;;5129029;27;20042;-72
2022/07/12 10:03:46;;;;;;;0.60;0.10;;;;;;;;;;5128828;27;20489;-71
2022/07/12 10:06:23;;;;;;;0.68;0.20;;;;;;;;;;5128967;27;20061;-71
2022/07/12 10:09:00;;;;;;;0.60;0.22;;;;;;;;;;5128891;27;20043;-71
2022/07/12 10:11:31;;;;;;;1.10;0.10;;;;;;;;;;5128567;27;20035;-72
2022/07/12 10:14:21;;;;;;;0.10;0.10;;;;;;;;;;5128403;27;21194;-71
2022/07/12 10:16:53;;;;;;;0.00;0.00;;;;;;;;;;5126787;27;20054;-71
2022/07/12 10:19:34;;;;;;;0.40;0.13;;;;;;;;;;5128448;27;20062;-72
2022/07/12 10:22:06;;;;;;;0.20;0.20;;;;;;;;;;5128793;27;20516;-72
2022/07/12 10:24:36;;;;;;;0.40;0.15;;;;;;;;;;5126784;27;20043;-72
2022/07/12 10:27:15;;;;;;;0.20;0.20;;;;;;;;;;5128747;27;20054;-73
2022/07/12 10:29:48;;;;;;;2.00;0.20;;;;;;;;;;5126679;27;20413;-73
2022/07/12 10:32:27;;;;;;;1.27;0.30;;;;;;;;;;5127593;27;20516;-73
2022/07/12 10:35:07;;;;;;;0.80;0.40;;;;;;;;;;5128180;27;20062;-72
2022/07/12 10:37:39;;;;;;;0.98;0.32;;;;;;;;;;5128450;27;20035;-72
2022/07/12 10:40:18;;;;;;;0.55;0.30;;;;;;;;;;5128384;27;20051;-72
2022/07/12 10:43:08;;;;;;;0.65;0.30;;;;;;;;;;5128204;27;20055;-73
2022/07/12 10:45:43;;;;;;;0.52;0.35;;;;;;;;;;5118651;27;20055;-72
2022/07/12 10:48:13;;;;;;;0.60;0.52;;;;;;;;;;5128029;27;20051;-72
2022/07/12 10:50:48;;;;;;;1.33;0.38;;;;;;;;;;5127767;27;20421;-72
2022/07/12 10:53:21;;;;;;;0.90;0.90;;;;;;;;;;5128605;27;20050;-73
2022/07/12 10:56:25;;;;;;;2.25;0.70;;;;;;;;;;5128414;27;20050;-72
2022/07/12 10:59:00;;;;;;;0.50;0.50;;;;;;;;;;5127362;27;20051;-72
2022/07/12 11:01:31;;;;;;;0.70;0.43;;;;;;;;;;5128161;27;20058;-72
2022/07/12 11:04:07;;;;;;;0.50;0.50;;;;;;;;;;5126348;27;20042;-70
2022/07/12 11:06:40;;;;;;;0.90;0.50;;;;;;;;;;5127981;27;20047;-73
2022/07/12 11:09:11;;;;;;;3.20;0.60;;;;;;;;;;5127531;27;20405;-77
2022/07/12 11:11:50;;;;;;;0.50;0.50;;;;;;;;;;5126853;27;20779;-72
2022/07/12 11:14:30;;;;;;;0.38;0.38;;;;;;;;;;5127440;27;20050;-71
2022/07/12 11:17:00;;;;;;;2.30;0.30;;;;;;;;;;5127363;27;20051;-70
2022/07/12 11:19:31;;;;;;;9.10;4.03;;;;;;;;;;5127572;27;20046;-71
2022/07/12 11:22:02;;;;;;;1.23;0.40;;;;;;;;;;5127046;27;20047;-73
2022/07/12 11:24:32;;;;;;;;;;;;;;;;;;5126135;27;20405;-72
2022/07/12 11:27:03;;;;;;;1.15;0.20;;;;;;;;;;5126789;27;19923;-72
2022/07/12 11:29:33;;;;;;;1.55;0.22;;;;;;;;;;5127692;27;20058;-71
2022/07/12 11:32:07;;;;;;;;;;;;;;;;;;5128339;28;20420;-72
2022/07/12 11:34:40;;;;;;;3.33;0.60;;;;;;;;;;5127561;28;19920;-72
2022/07/12 11:37:10;;;;;;;2.50;0.50;;;;;;;;;;5126839;28;20669;-71
2022/07/12 11:39:40;;;;;;;2.38;0.77;;;;;;;;;;5126741;28;20047;-72
2022/07/12 11:42:12;;;;;;;1.15;0.63;;;;;;;;;;5126215;28;20054;-71
2022/07/12 11:44:50;;;;;;;1.73;0.70;;;;;;;;;;5127032;28;20062;-71
2022/07/12 11:47:22;;;;;;;3.60;1.40;;;;;;;;;;5127517;28;20043;-71
2022/07/12 11:49:54;;;;;;;1.48;0.70;;;;;;;;;;5127031;28;20051;-72
2022/07/12 11:52:25;;;;;;;2.03;0.85;;;;;;;;;;5127596;28;20051;-71
2022/07/12 11:54:55;;;;;;;2.40;0.90;;;;;;;;;;5127497;28;20062;-71
2022/07/12 11:57:25;;;;;;;1.90;0.80;;;;;;;;;;5127221;28;20041;-71
2022/07/12 11:59:55;;;;;;;2.08;0.98;;;;;;;;;;5108472;28;20054;-75
2022/07/12 12:02:29;;;;;;;1.60;1.00;;;;;;;;;;5127328;28;20047;-71
2022/07/12 12:05:00;;;;;;;1.75;0.88;;;;;;;;;;5127230;28;20054;-71
2022/07/12 12:07:29;;;;;;;1.58;0.82;;;;;;;;;;5126977;28;20493;-72
2022/07/12 12:10:16;;;;;;;1.58;0.90;;;;;;;;;;5127091;28;20051;-71
2022/07/12 12:12:48;;;;;;;2.67;1.17;;;;;;;;;;5126167;28;20058;-72
2022/07/12 12:15:19;;;;;;;1.35;1.00;;;;;;;;;;5126933;28;20043;-74
2022/07/12 12:17:55;;;;;;;2.78;1.48;;;;;;;;;;5127615;28;20047;-71
2022/07/12 12:20:27;;;;;;;0.60;0.47;;;;;;;;;;5129781;27;20047;-72
2022/07/12 12:23:02;;;;;;;0.82;0.75;;;;;;;;;;5130825;27;20058;-72
2022/07/12 12:25:33;;;;;;;2.53;0.93;;;;;;;;;;5131175;27;20043;-73
2022/07/12 12:28:05;;;;;;;1.30;0.57;;;;;;;;;;5129953;27;20050;-73
2022/07/12 12:30:57;;;;;;;1.75;0.95;;;;;;;;;;5130757;27;20498;-71
2022/07/12 12:33:35;;;;;;;2.75;0.65;;;;;;;;;;5130474;27;20595;-72
2022/07/12 12:36:23;;;;;;;1.42;1.00;;;;;;;;;;5130203;27;20053;-71
2022/07/12 12:38:58;;;;;;;1.48;0.60;;;;;;;;;;5130552;27;20043;-72
2022/07/12 12:41:37;;;;;;;0.60;0.60;;;;;;;;;;5131050;27;20043;-71
2022/07/12 12:44:16;;;;;;;1.60;0.60;;;;;;;;;;5130670;27;20509;-72
2022/07/12 12:49:50;;;;;;;0.77;0.60;;;;;;;;;;5130047;27;20065;-74
2022/07/12 12:52:27;;;;;;;2.80;1.10;;;;;;;;;;5130480;27;20043;-72
2022/07/12 12:54:58;;;;;;;2.13;0.80;;;;;;;;;;5128205;27;20136;-73
2022/07/12 12:57:28;;;;;;;5.07;0.80;;;;;;;;;;5129959;27;20053;-73
2022/07/12 12:59:58;;;;;;;1.13;0.65;;;;;;;;;;5130338;27;20437;-72
2022/07/12 13:02:28;;;;;;;0.93;0.73;;;;;;;;;;5129576;27;20043;-72
2022/07/12 13:04:58;;;;;;;1.52;0.60;;;;;;;;;;5129673;27;20058;-72
2022/07/12 13:07:28;;;;;;;1.13;0.68;;;;;;;;;;5129970;27;20054;-72
2022/07/12 13:09:58;;;;;;;0.70;0.60;;;;;;;;;;5128157;27;20596;-72
2022/07/12 13:12:28;;;;;;;2.10;0.50;;;;;;;;;;5129537;27;20390;-71
2022/07/12 13:14:58;;;;;;;;;;;;;;;;;;5130888;27;20076;-72
2022/07/12 13:17:27;;;;;;;0.55;0.32;;;;;;;;;;5130008;27;20320;-72
2022/07/12 13:19:57;;;;;;;0.60;0.52;;;;;;;;;;5129753;27;20051;-72
2022/07/12 13:22:26;;;;;;;;;;;;;;;;;;5130116;27;20040;-72
2022/07/12 13:24:56;;;;;;;0.47;0.47;;;;;;;;;;5129247;27;19923;-71
2022/07/12 13:27:29;;;;;;;;;;;;;;;;;;5130289;27;20039;-72
2022/07/12 13:29:59;;;;;;;0.93;0.80;;;;;;;;;;5129560;27;20390;-72
2022/07/12 13:32:29;;;;;;;1.00;0.70;;;;;;;;;;5129361;27;20047;-72
2022/07/12 13:35:00;;;;;;;2.50;0.90;;;;;;;;;;5129203;27;20047;-73
2022/07/12 13:37:29;;;;;;;0.82;0.70;;;;;;;;;;5129561;27;20047;-72
2022/07/12 13:40:11;;;;;;;;;;;;;;;;;;5129905;27;20055;-72
2022/07/12 13:42:42;;;;;;;0.55;0.50;;;;;;;;;;5129414;27;19920;-72
2022/07/12 13:45:24;;;;;;;0.60;0.50;;;;;;;;;;5129070;27;20047;-73
2022/07/12 13:47:55;;;;;;;4.20;0.50;;;;;;;;;;5129268;27;20691;-74
2022/07/12 13:50:25;;;;;;;2.03;0.50;;;;;;;;;;5129400;27;20410;-72
2022/07/12 13:53:00;;;;;;;3.35;1.35;;;;;;;;;;5129466;27;20043;-72
2022/07/12 13:55:31;;;;;;;1.55;0.47;;;;;;;;;;5129115;27;20047;-72
2022/07/12 13:58:01;;;;;;;1.40;0.60;;;;;;;;;;5129169;27;20444;-72
2022/07/12 14:00:31;;;;;;;1.33;0.60;;;;;;;;;;5128880;27;20054;-74
2022/07/12 14:03:01;;;;;;;1.52;0.60;;;;;;;;;;5127157;27;20596;-71
2022/07/12 14:05:31;;;;;;;1.05;0.73;;;;;;;;;;5128515;27;20043;-72
2022/07/12 14:08:01;;;;;;;2.72;0.47;;;;;;;;;;5129031;27;20051;-73
2022/07/12 14:10:33;;;;;;;3.80;0.90;;;;;;;;;;5128789;27;20051;-72
2022/07/12 14:13:03;;;;;;;1.95;0.65;;;;;;;;;;5128546;27;20058;-72
2022/07/12 14:15:36;;;;;;;0.47;0.40;;;;;;;;;;5128406;27;20051;-72
2022/07/12 14:18:08;;;;;;;1.48;0.50;;;;;;;;;;5129324;27;20039;-72
2022/07/12 14:20:38;;;;;;;1.13;0.68;;;;;;;;;;5129007;27;20043;-71
2022/07/12 14:23:11;;;;;;;1.55;0.60;;;;;;;;;;5128554;27;20058;-73
2022/07/12 14:25:42;;;;;;;1.02;0.40;;;;;;;;;;5128362;27;20045;-72
2022/07/12 14:28:11;;;;;;;1.25;0.55;;;;;;;;;;5126314;27;20058;-73
2022/07/12 14:30:41;;;;;;;;;;;;;;;;;;5128993;27;20051;-73
2022/07/12 14:33:10;;;;;;;1.67;0.77;;;;;;;;;;5128457;27;19937;-73
2022/07/12 14:35:40;;;;;;;1.17;0.60;;;;;;;;;;5128129;27;20074;-71
2022/07/12 14:38:10;;;;;;;0.90;0.40;;;;;;;;;;5126700;27;20054;-71
2022/07/12 14:40:39;;;;;;;;;;;;;;;;;;5129122;27;20473;-72
2022/07/12 14:43:10;;;;;;;0.65;0.60;;;;;;;;;;5125435;27;19923;-70
2022/07/12 14:45:42;;;;;;;0.75;0.55;;;;;;;;;;5127825;27;20054;-72
2022/07/12 14:48:12;;;;;;;0.88;0.40;;;;;;;;;;5128110;27;20417;-71
2022/07/12 14:50:42;;;;;;;2.92;0.50;;;;;;;;;;5127992;27;20055;-72
2022/07/12 14:53:14;;;;;;;0.60;0.60;;;;;;;;;;5128196;27;20039;-71
2022/07/12 14:55:45;;;;;;;1.13;0.63;;;;;;;;;;5128160;27;20053;-72
2022/07/12 14:58:14;;;;;;;;;;;;;;;;;;5128346;27;20413;-72
2022/07/12 15:00:44;;;;;;;0.80;0.50;;;;;;;;;;5128191;27;19923;-70
2022/07/12 15:03:14;;;;;;;1.25;0.60;;;;;;;;;;5127634;27;20052;-71
2022/07/12 15:05:45;;;;;;;5.65;1.00;;;;;;;;;;5128520;27;20505;-72
2022/07/12 15:08:16;;;;;;;1.48;0.60;;;;;;;;;;5128256;27;20046;-71
2022/07/12 15:10:45;;;;;;;;;;;;;;;;;;5128157;27;20047;-71
2022/07/12 15:13:15;;;;;;;0.90;0.68;;;;;;;;;;5125430;27;20445;-72
2022/07/12 15:15:44;;;;;;;1.38;0.80;;;;;;;;;;5127429;27;20051;-70
2022/07/12 15:18:14;;;;;;;1.05;0.70;;;;;;;;;;5127358;27;20055;-72
2022/07/12 15:20:44;;;;;;;12.02;2.17;;;;;;;;;;5127064;27;20051;-72
2022/07/12 15:23:14;;;;;;;4.38;0.90;;;;;;;;;;5127542;27;20050;-71
2022/07/12 15:25:46;;;;;;;6.40;1.20;;;;;;;;;;5127768;27;20047;-71
2022/07/12 15:28:22;;;;;;;0.98;0.60;;;;;;;;;;5128330;27;20393;-72
2022/07/12 15:30:53;;;;;;;2.53;0.75;;;;;;;;;;5127105;27;20070;-72
2022/07/12 15:33:25;;;;;;;1.38;0.80;;;;;;;;;;5127455;28;20212;-71
2022/07/12 15:35:56;;;;;;;1.15;0.68;;;;;;;;;;5124854;28;20517;-71
2022/07/12 15:38:26;;;;;;;1.58;0.60;;;;;;;;;;5127168;28;20382;-74
2022/07/12 15:40:55;;;;;;;;;;;;;;;;;;5127668;28;20054;-72
2022/07/12 15:43:25;;;;;;;2.88;0.40;;;;;;;;;;5127480;28;19946;-72
2022/07/12 15:45:54;;;;;;;;;;;;;;;;;;5127499;28;20058;-72
2022/07/12 15:48:25;;;;;;;0.70;0.50;;;;;;;;;;5127383;28;20374;-73
2022/07/12 15:50:54;;;;;;;;;;;;;;;;;;5128230;28;20047;-72
2022/07/12 15:53:27;;;;;;;1.00;0.45;;;;;;;;;;5127131;27;19927;-71
2022/07/12 15:56:02;;;;;;;1.05;0.50;;;;;;;;;;5130878;27;20543;-72
2022/07/12 15:58:35;;;;;;;0.85;0.60;;;;;;;;;;5131664;27;20084;-72
2022/07/12 16:01:08;;;;;;;1.92;0.70;;;;;;;;;;5131275;27;20047;-71
2022/07/12 16:03:40;;;;;;;1.02;0.70;;;;;;;;;;5130979;27;20047;-70
2022/07/12 16:06:31;;;;;;;1.42;0.93;;;;;;;;;;5131636;27;20042;-71
2022/07/12 16:09:02;;;;;;;7.38;0.80;;;;;;;;;;5130666;27;20046;-72
2022/07/12 16:11:32;;;;;;;1.58;0.90;;;;;;;;;;5130496;27;20050;-72